sensor_id;sensor_type;location;lat;lon;timestamp;P1;durP1;ratioP1;P2;durP2;ratioP2
10963;SDS011;5534;48.784;9.190;2022-10-04T00:01:27;7.30;;;4.63;;
10963;SDS011;5534;48.784;9.190;2022-10-04T00:09:30;7.17;;;4.30;;
10963;SDS011;5534;48.784;9.190;2022-10-04T00:12:39;7.90;;;5.17;;
10963;SDS011;5534;48.784;9.190;2022-10-04T00:15:19;7.77;;;4.80;;
10963;SDS011;5534;48.784;9.190;2022-10-04T00:17:59;7.50;;;4.80;;
10963;SDS011;5534;48.784;9.190;2022-10-04T00:25:58;8.63;;;5.70;;
10963;SDS011;5534;48.784;9.190;2022-10-04T00:28:50;7.63;;;4.93;;
10963;SDS011;5534;48.784;9.190;2022-10-04T00:33:49;9.93;;;5.30;;
10963;SDS011;5534;48.784;9.190;2022-10-04T00:39:18;7.37;;;5.30;;
10963;SDS011;5534;48.784;9.190;2022-10-04T00:44:53;8.27;;;5.23;;
10963;SDS011;5534;48.784;9.190;2022-10-04T00:47:52;6.50;;;4.70;;
10963;SDS011;5534;48.784;9.190;2022-10-04T00:50:35;12.20;;;6.23;;
10963;SDS011;5534;48.784;9.190;2022-10-04T00:53:13;7.57;;;5.07;;
10963;SDS011;5534;48.784;9.190;2022-10-04T00:55:59;10.10;;;5.27;;
10963;SDS011;5534;48.784;9.190;2022-10-04T00:58:28;8.93;;;4.97;;
10963;SDS011;5534;48.784;9.190;2022-10-04T01:01:02;7.63;;;5.20;;
10963;SDS011;5534;48.784;9.190;2022-10-04T01:03:29;7.53;;;4.93;;
10963;SDS011;5534;48.784;9.190;2022-10-04T01:05:59;7.43;;;4.93;;
10963;SDS011;5534;48.784;9.190;2022-10-04T01:08:34;8.57;;;5.20;;
10963;SDS011;5534;48.784;9.190;2022-10-04T01:11:12;8.40;;;5.27;;
10963;SDS011;5534;48.784;9.190;2022-10-04T01:13:42;7.13;;;4.87;;
10963;SDS011;5534;48.784;9.190;2022-10-04T01:16:26;5.90;;;4.57;;
10963;SDS011;5534;48.784;9.190;2022-10-04T01:18:54;8.43;;;5.43;;
10963;SDS011;5534;48.784;9.190;2022-10-04T01:21:22;8.67;;;6.00;;
10963;SDS011;5534;48.784;9.190;2022-10-04T01:29:39;7.67;;;5.30;;
10963;SDS011;5534;48.784;9.190;2022-10-04T01:31:48;10.43;;;5.10;;
10963;SDS011;5534;48.784;9.190;2022-10-04T01:34:17;7.20;;;5.80;;
10963;SDS011;5534;48.784;9.190;2022-10-04T01:36:44;8.23;;;4.93;;
10963;SDS011;5534;48.784;9.190;2022-10-04T01:39:13;13.03;;;5.73;;
10963;SDS011;5534;48.784;9.190;2022-10-04T01:41:43;8.43;;;5.27;;
10963;SDS011;5534;48.784;9.190;2022-10-04T01:44:23;8.40;;;5.23;;
10963;SDS011;5534;48.784;9.190;2022-10-04T01:46:58;6.17;;;5.20;;
10963;SDS011;5534;48.784;9.190;2022-10-04T01:49:28;7.67;;;4.67;;
10963;SDS011;5534;48.784;9.190;2022-10-04T01:51:59;7.57;;;5.20;;
10963;SDS011;5534;48.784;9.190;2022-10-04T01:54:42;8.13;;;5.47;;
10963;SDS011;5534;48.784;9.190;2022-10-04T01:57:14;8.73;;;5.23;;
10963;SDS011;5534;48.784;9.190;2022-10-04T01:59:45;6.07;;;5.20;;
10963;SDS011;5534;48.784;9.190;2022-10-04T02:05:09;5.27;;;4.53;;
10963;SDS011;5534;48.784;9.190;2022-10-04T02:07:37;8.77;;;5.10;;
10963;SDS011;5534;48.784;9.190;2022-10-04T02:10:08;7.63;;;5.10;;
10963;SDS011;5534;48.784;9.190;2022-10-04T02:12:47;7.00;;;4.60;;
10963;SDS011;5534;48.784;9.190;2022-10-04T02:15:17;6.30;;;4.50;;
10963;SDS011;5534;48.784;9.190;2022-10-04T02:17:44;7.77;;;5.40;;
10963;SDS011;5534;48.784;9.190;2022-10-04T02:20:19;8.17;;;4.70;;
10963;SDS011;5534;48.784;9.190;2022-10-04T02:22:55;9.57;;;5.30;;
10963;SDS011;5534;48.784;9.190;2022-10-04T02:25:27;6.70;;;5.43;;
10963;SDS011;5534;48.784;9.190;2022-10-04T02:27:53;5.93;;;4.70;;
10963;SDS011;5534;48.784;9.190;2022-10-04T02:30:20;8.07;;;5.03;;
10963;SDS011;5534;48.784;9.190;2022-10-04T02:32:46;9.23;;;5.33;;
10963;SDS011;5534;48.784;9.190;2022-10-04T02:35:22;9.27;;;5.10;;
10963;SDS011;5534;48.784;9.190;2022-10-04T02:38:33;8.57;;;5.27;;
10963;SDS011;5534;48.784;9.190;2022-10-04T02:41:02;9.33;;;5.13;;
10963;SDS011;5534;48.784;9.190;2022-10-04T02:44:12;6.90;;;5.00;;
10963;SDS011;5534;48.784;9.190;2022-10-04T02:49:51;6.77;;;4.93;;
10963;SDS011;5534;48.784;9.190;2022-10-04T02:52:14;9.17;;;5.30;;
10963;SDS011;5534;48.784;9.190;2022-10-04T02:57:33;6.37;;;4.83;;
10963;SDS011;5534;48.784;9.190;2022-10-04T03:00:09;5.03;;;4.53;;
10963;SDS011;5534;48.784;9.190;2022-10-04T03:05:59;6.23;;;4.77;;
10963;SDS011;5534;48.784;9.190;2022-10-04T03:11:18;8.07;;;5.17;;
10963;SDS011;5534;48.784;9.190;2022-10-04T03:13:48;5.37;;;4.63;;
10963;SDS011;5534;48.784;9.190;2022-10-04T03:16:17;11.07;;;5.13;;
10963;SDS011;5534;48.784;9.190;2022-10-04T03:18:43;6.40;;;5.07;;
10963;SDS011;5534;48.784;9.190;2022-10-04T03:21:11;6.20;;;4.87;;
10963;SDS011;5534;48.784;9.190;2022-10-04T03:23:40;6.67;;;4.93;;
10963;SDS011;5534;48.784;9.190;2022-10-04T03:26:30;7.47;;;4.93;;
10963;SDS011;5534;48.784;9.190;2022-10-04T03:29:11;6.20;;;4.80;;
10963;SDS011;5534;48.784;9.190;2022-10-04T03:31:49;5.60;;;5.00;;
10963;SDS011;5534;48.784;9.190;2022-10-04T03:34:20;5.90;;;4.80;;
10963;SDS011;5534;48.784;9.190;2022-10-04T03:36:51;8.20;;;5.10;;
10963;SDS011;5534;48.784;9.190;2022-10-04T03:39:26;5.30;;;4.27;;
10963;SDS011;5534;48.784;9.190;2022-10-04T03:41:56;5.93;;;4.20;;
10963;SDS011;5534;48.784;9.190;2022-10-04T03:44:23;6.17;;;4.83;;
10963;SDS011;5534;48.784;9.190;2022-10-04T03:46:49;6.00;;;4.20;;
10963;SDS011;5534;48.784;9.190;2022-10-04T03:49:16;7.77;;;4.50;;
10963;SDS011;5534;48.784;9.190;2022-10-04T03:51:50;5.47;;;4.23;;
10963;SDS011;5534;48.784;9.190;2022-10-04T03:54:17;4.70;;;3.57;;
10963;SDS011;5534;48.784;9.190;2022-10-04T03:56:47;6.93;;;4.30;;
10963;SDS011;5534;48.784;9.190;2022-10-04T03:59:18;5.57;;;4.33;;
10963;SDS011;5534;48.784;9.190;2022-10-04T04:01:48;6.00;;;4.37;;
10963;SDS011;5534;48.784;9.190;2022-10-04T04:04:43;7.13;;;5.03;;
10963;SDS011;5534;48.784;9.190;2022-10-04T04:07:19;5.07;;;4.37;;
10963;SDS011;5534;48.784;9.190;2022-10-04T04:10:16;4.90;;;4.20;;
10963;SDS011;5534;48.784;9.190;2022-10-04T04:15:20;5.87;;;4.30;;
10963;SDS011;5534;48.784;9.190;2022-10-04T04:17:46;5.70;;;5.10;;
10963;SDS011;5534;48.784;9.190;2022-10-04T04:20:21;8.30;;;4.50;;
10963;SDS011;5534;48.784;9.190;2022-10-04T04:25:27;7.70;;;5.20;;
10963;SDS011;5534;48.784;9.190;2022-10-04T04:27:59;7.83;;;4.47;;
10963;SDS011;5534;48.784;9.190;2022-10-04T04:30:36;6.17;;;4.97;;
10963;SDS011;5534;48.784;9.190;2022-10-04T04:33:06;5.90;;;4.57;;
10963;SDS011;5534;48.784;9.190;2022-10-04T04:35:36;6.30;;;4.30;;
10963;SDS011;5534;48.784;9.190;2022-10-04T04:38:11;6.50;;;4.43;;
10963;SDS011;5534;48.784;9.190;2022-10-04T04:40:38;6.60;;;4.47;;
10963;SDS011;5534;48.784;9.190;2022-10-04T04:43:04;6.33;;;4.90;;
10963;SDS011;5534;48.784;9.190;2022-10-04T04:45:31;8.63;;;4.80;;
10963;SDS011;5534;48.784;9.190;2022-10-04T04:47:58;7.90;;;4.93;;
10963;SDS011;5534;48.784;9.190;2022-10-04T04:50:35;5.37;;;4.57;;
10963;SDS011;5534;48.784;9.190;2022-10-04T04:53:05;8.37;;;5.23;;
10963;SDS011;5534;48.784;9.190;2022-10-04T04:55:42;8.30;;;5.00;;
10963;SDS011;5534;48.784;9.190;2022-10-04T04:58:22;7.73;;;4.33;;
10963;SDS011;5534;48.784;9.190;2022-10-04T05:00:58;5.40;;;4.23;;
10963;SDS011;5534;48.784;9.190;2022-10-04T05:03:26;6.77;;;4.37;;
10963;SDS011;5534;48.784;9.190;2022-10-04T05:05:54;6.27;;;4.67;;
10963;SDS011;5534;48.784;9.190;2022-10-04T05:08:29;5.47;;;4.60;;
10963;SDS011;5534;48.784;9.190;2022-10-04T05:13:38;6.10;;;4.50;;
10963;SDS011;5534;48.784;9.190;2022-10-04T05:16:21;8.17;;;5.00;;
10963;SDS011;5534;48.784;9.190;2022-10-04T05:18:59;4.87;;;4.37;;
10963;SDS011;5534;48.784;9.190;2022-10-04T05:21:29;5.70;;;4.30;;
10963;SDS011;5534;48.784;9.190;2022-10-04T05:23:56;5.97;;;4.77;;
10963;SDS011;5534;48.784;9.190;2022-10-04T05:26:31;6.90;;;4.40;;
10963;SDS011;5534;48.784;9.190;2022-10-04T05:28:58;6.50;;;4.37;;
10963;SDS011;5534;48.784;9.190;2022-10-04T05:31:38;6.53;;;4.47;;
10963;SDS011;5534;48.784;9.190;2022-10-04T05:34:22;6.17;;;4.10;;
10963;SDS011;5534;48.784;9.190;2022-10-04T05:39:28;8.57;;;4.53;;
10963;SDS011;5534;48.784;9.190;2022-10-04T05:42:04;6.20;;;4.60;;
10963;SDS011;5534;48.784;9.190;2022-10-04T05:44:44;23.00;;;13.67;;
10963;SDS011;5534;48.784;9.190;2022-10-04T05:47:14;9.60;;;6.37;;
10963;SDS011;5534;48.784;9.190;2022-10-04T05:49:41;27.77;;;16.00;;
10963;SDS011;5534;48.784;9.190;2022-10-04T05:52:14;11.93;;;6.23;;
10963;SDS011;5534;48.784;9.190;2022-10-04T05:55:05;9.53;;;5.10;;
10963;SDS011;5534;48.784;9.190;2022-10-04T06:00:27;5.60;;;3.70;;
10963;SDS011;5534;48.784;9.190;2022-10-04T06:05:53;7.03;;;4.63;;
10963;SDS011;5534;48.784;9.190;2022-10-04T06:14:03;10.70;;;4.60;;
10963;SDS011;5534;48.784;9.190;2022-10-04T06:16:52;5.13;;;4.00;;
10963;SDS011;5534;48.784;9.190;2022-10-04T06:19:42;6.23;;;4.33;;
10963;SDS011;5534;48.784;9.190;2022-10-04T06:24:51;15.00;;;9.63;;
10963;SDS011;5534;48.784;9.190;2022-10-04T06:30:18;5.33;;;4.63;;
10963;SDS011;5534;48.784;9.190;2022-10-04T06:38:10;8.60;;;4.27;;
10963;SDS011;5534;48.784;9.190;2022-10-04T06:46:33;5.87;;;4.43;;
10963;SDS011;5534;48.784;9.190;2022-10-04T06:49:15;7.97;;;4.50;;
10963;SDS011;5534;48.784;9.190;2022-10-04T07:00:53;9.97;;;5.10;;
10963;SDS011;5534;48.784;9.190;2022-10-04T07:03:28;8.03;;;4.63;;
10963;SDS011;5534;48.784;9.190;2022-10-04T07:06:04;6.47;;;4.40;;
10963;SDS011;5534;48.784;9.190;2022-10-04T07:08:38;8.97;;;4.57;;
10963;SDS011;5534;48.784;9.190;2022-10-04T07:11:16;7.73;;;4.40;;
10963;SDS011;5534;48.784;9.190;2022-10-04T07:13:51;7.93;;;4.50;;
10963;SDS011;5534;48.784;9.190;2022-10-04T07:24:37;6.83;;;4.33;;
10963;SDS011;5534;48.784;9.190;2022-10-04T07:27:12;8.83;;;4.30;;
10963;SDS011;5534;48.784;9.190;2022-10-04T07:29:45;5.27;;;4.10;;
10963;SDS011;5534;48.784;9.190;2022-10-04T07:32:30;5.33;;;4.47;;
10963;SDS011;5534;48.784;9.190;2022-10-04T07:35:01;8.53;;;3.87;;
10963;SDS011;5534;48.784;9.190;2022-10-04T07:37:53;4.93;;;3.83;;
10963;SDS011;5534;48.784;9.190;2022-10-04T07:40:35;4.87;;;3.50;;
10963;SDS011;5534;48.784;9.190;2022-10-04T07:43:21;5.80;;;3.97;;
10963;SDS011;5534;48.784;9.190;2022-10-04T07:45:53;9.17;;;5.40;;
10963;SDS011;5534;48.784;9.190;2022-10-04T07:48:29;6.50;;;4.30;;
10963;SDS011;5534;48.784;9.190;2022-10-04T07:53:40;5.20;;;4.00;;
10963;SDS011;5534;48.784;9.190;2022-10-04T08:02:07;6.37;;;3.70;;
10963;SDS011;5534;48.784;9.190;2022-10-04T08:07:18;4.37;;;3.37;;
10963;SDS011;5534;48.784;9.190;2022-10-04T08:09:59;8.13;;;3.87;;
10963;SDS011;5534;48.784;9.190;2022-10-04T08:13:37;4.03;;;3.63;;
10963;SDS011;5534;48.784;9.190;2022-10-04T08:15:52;7.57;;;3.97;;
10963;SDS011;5534;48.784;9.190;2022-10-04T08:18:34;9.20;;;4.03;;
10963;SDS011;5534;48.784;9.190;2022-10-04T08:21:18;7.30;;;3.57;;
10963;SDS011;5534;48.784;9.190;2022-10-04T08:24:19;5.53;;;4.13;;
10963;SDS011;5534;48.784;9.190;2022-10-04T08:29:38;7.40;;;4.20;;
10963;SDS011;5534;48.784;9.190;2022-10-04T08:35:24;6.57;;;4.10;;
10963;SDS011;5534;48.784;9.190;2022-10-04T08:49:12;8.90;;;4.00;;
10963;SDS011;5534;48.784;9.190;2022-10-04T08:55:14;6.30;;;4.20;;
10963;SDS011;5534;48.784;9.190;2022-10-04T09:06:25;6.63;;;3.30;;
10963;SDS011;5534;48.784;9.190;2022-10-04T09:11:58;4.50;;;3.50;;
10963;SDS011;5534;48.784;9.190;2022-10-04T09:26:18;5.83;;;3.43;;
10963;SDS011;5534;48.784;9.190;2022-10-04T09:31:57;4.87;;;3.60;;
10963;SDS011;5534;48.784;9.190;2022-10-04T10:00:16;5.68;;;2.92;;
10963;SDS011;5534;48.784;9.190;2022-10-04T10:08:14;3.90;;;2.37;;
10963;SDS011;5534;48.784;9.190;2022-10-04T10:24:31;3.22;;;2.00;;
10963;SDS011;5534;48.784;9.190;2022-10-04T10:27:18;2.47;;;1.83;;
10963;SDS011;5534;48.784;9.190;2022-10-04T10:33:17;3.20;;;1.70;;
10963;SDS011;5534;48.784;9.190;2022-10-04T10:41:38;2.72;;;1.60;;
10963;SDS011;5534;48.784;9.190;2022-10-04T10:49:43;3.13;;;1.27;;
10963;SDS011;5534;48.784;9.190;2022-10-04T10:52:34;2.42;;;1.40;;
10963;SDS011;5534;48.784;9.190;2022-10-04T10:55:13;2.55;;;2.20;;
10963;SDS011;5534;48.784;9.190;2022-10-04T11:01:02;3.10;;;1.80;;
10963;SDS011;5534;48.784;9.190;2022-10-04T11:03:54;3.08;;;1.80;;
10963;SDS011;5534;48.784;9.190;2022-10-04T11:12:04;3.80;;;1.77;;
10963;SDS011;5534;48.784;9.190;2022-10-04T11:37:41;4.15;;;2.30;;
10963;SDS011;5534;48.784;9.190;2022-10-04T12:00:18;3.30;;;1.80;;
10963;SDS011;5534;48.784;9.190;2022-10-04T12:06:08;6.63;;;3.00;;
10963;SDS011;5534;48.784;9.190;2022-10-04T12:25:43;4.65;;;1.48;;
10963;SDS011;5534;48.784;9.190;2022-10-04T12:31:21;3.67;;;1.70;;
10963;SDS011;5534;48.784;9.190;2022-10-04T12:34:24;4.32;;;1.73;;
10963;SDS011;5534;48.784;9.190;2022-10-04T12:53:50;6.13;;;2.10;;
10963;SDS011;5534;48.784;9.190;2022-10-04T13:04:50;2.47;;;1.60;;
10963;SDS011;5534;48.784;9.190;2022-10-04T13:17:28;3.08;;;1.90;;
10963;SDS011;5534;48.784;9.190;2022-10-04T13:23:03;4.10;;;1.75;;
10963;SDS011;5534;48.784;9.190;2022-10-04T13:31:00;1.80;;;1.38;;
10963;SDS011;5534;48.784;9.190;2022-10-04T13:33:53;2.20;;;1.52;;
10963;SDS011;5534;48.784;9.190;2022-10-04T13:36:41;2.67;;;1.70;;
10963;SDS011;5534;48.784;9.190;2022-10-04T14:10:48;3.50;;;1.30;;
10963;SDS011;5534;48.784;9.190;2022-10-04T14:27:34;6.20;;;3.15;;
10963;SDS011;5534;48.784;9.190;2022-10-04T14:39:02;3.40;;;2.00;;
10963;SDS011;5534;48.784;9.190;2022-10-04T14:44:58;3.17;;;1.80;;
10963;SDS011;5534;48.784;9.190;2022-10-04T15:01:42;3.38;;;2.08;;
10963;SDS011;5534;48.784;9.190;2022-10-04T15:12:22;3.80;;;1.98;;
10963;SDS011;5534;48.784;9.190;2022-10-04T15:15:16;2.85;;;1.60;;
10963;SDS011;5534;48.784;9.190;2022-10-04T15:18:26;3.85;;;1.40;;
10963;SDS011;5534;48.784;9.190;2022-10-04T15:24:09;2.75;;;1.83;;
10963;SDS011;5534;48.784;9.190;2022-10-04T15:29:31;6.00;;;3.50;;
10963;SDS011;5534;48.784;9.190;2022-10-04T15:37:50;3.42;;;2.05;;
10963;SDS011;5534;48.784;9.190;2022-10-04T15:40:34;2.72;;;1.95;;
10963;SDS011;5534;48.784;9.190;2022-10-04T15:45:58;2.38;;;1.30;;
10963;SDS011;5534;48.784;9.190;2022-10-04T15:59:51;2.40;;;1.45;;
10963;SDS011;5534;48.784;9.190;2022-10-04T16:07:50;2.65;;;1.42;;
10963;SDS011;5534;48.784;9.190;2022-10-04T16:13:20;2.22;;;1.23;;
10963;SDS011;5534;48.784;9.190;2022-10-04T16:21:32;1.38;;;1.17;;
10963;SDS011;5534;48.784;9.190;2022-10-04T16:32:14;1.88;;;1.63;;
10963;SDS011;5534;48.784;9.190;2022-10-04T16:34:50;3.92;;;1.60;;
10963;SDS011;5534;48.784;9.190;2022-10-04T16:42:58;2.70;;;1.30;;
10963;SDS011;5534;48.784;9.190;2022-10-04T16:45:40;3.88;;;1.38;;
10963;SDS011;5534;48.784;9.190;2022-10-04T16:56:29;2.97;;;2.13;;
10963;SDS011;5534;48.784;9.190;2022-10-04T16:59:10;3.08;;;1.70;;
10963;SDS011;5534;48.784;9.190;2022-10-04T17:01:40;3.90;;;2.13;;
10963;SDS011;5534;48.784;9.190;2022-10-04T17:17:49;4.55;;;2.40;;
10963;SDS011;5534;48.784;9.190;2022-10-04T17:29:02;5.57;;;2.08;;
10963;SDS011;5534;48.784;9.190;2022-10-04T17:34:49;5.88;;;3.00;;
10963;SDS011;5534;48.784;9.190;2022-10-04T17:40:05;3.78;;;2.35;;
10963;SDS011;5534;48.784;9.190;2022-10-04T17:45:41;3.17;;;2.10;;
10963;SDS011;5534;48.784;9.190;2022-10-04T17:48:18;3.58;;;2.15;;
10963;SDS011;5534;48.784;9.190;2022-10-04T17:54:25;4.60;;;2.90;;
10963;SDS011;5534;48.784;9.190;2022-10-04T17:57:20;4.63;;;2.92;;
10963;SDS011;5534;48.784;9.190;2022-10-04T18:10:34;3.88;;;2.35;;
10963;SDS011;5534;48.784;9.190;2022-10-04T18:13:12;3.72;;;2.38;;
10963;SDS011;5534;48.784;9.190;2022-10-04T18:16:01;4.30;;;2.33;;
10963;SDS011;5534;48.784;9.190;2022-10-04T18:18:40;4.95;;;2.60;;
10963;SDS011;5534;48.784;9.190;2022-10-04T18:21:26;3.85;;;2.00;;
10963;SDS011;5534;48.784;9.190;2022-10-04T18:26:52;3.83;;;2.88;;
10963;SDS011;5534;48.784;9.190;2022-10-04T18:29:38;3.38;;;2.60;;
10963;SDS011;5534;48.784;9.190;2022-10-04T18:34:52;2.70;;;2.13;;
10963;SDS011;5534;48.784;9.190;2022-10-04T18:37:20;4.38;;;2.10;;
10963;SDS011;5534;48.784;9.190;2022-10-04T18:40:09;4.15;;;3.08;;
10963;SDS011;5534;48.784;9.190;2022-10-04T18:42:42;2.60;;;2.40;;
10963;SDS011;5534;48.784;9.190;2022-10-04T18:47:49;2.40;;;2.20;;
10963;SDS011;5534;48.784;9.190;2022-10-04T18:52:50;3.25;;;2.30;;
10963;SDS011;5534;48.784;9.190;2022-10-04T19:07:08;4.65;;;3.58;;
10963;SDS011;5534;48.784;9.190;2022-10-04T19:09:57;5.80;;;3.17;;
10963;SDS011;5534;48.784;9.190;2022-10-04T19:13:17;5.88;;;3.30;;
10963;SDS011;5534;48.784;9.190;2022-10-04T19:15:25;5.07;;;3.40;;
10963;SDS011;5534;48.784;9.190;2022-10-04T19:18:21;6.47;;;3.17;;
10963;SDS011;5534;48.784;9.190;2022-10-04T19:26:30;6.35;;;3.65;;
10963;SDS011;5534;48.784;9.190;2022-10-04T19:32:00;5.45;;;3.35;;
10963;SDS011;5534;48.784;9.190;2022-10-04T19:48:39;5.95;;;3.63;;
10963;SDS011;5534;48.784;9.190;2022-10-04T19:53:57;7.38;;;4.18;;
10963;SDS011;5534;48.784;9.190;2022-10-04T19:56:33;6.47;;;3.63;;
10963;SDS011;5534;48.784;9.190;2022-10-04T19:59:08;7.70;;;4.10;;
10963;SDS011;5534;48.784;9.190;2022-10-04T20:01:50;6.43;;;3.92;;
10963;SDS011;5534;48.784;9.190;2022-10-04T20:04:17;4.78;;;3.72;;
10963;SDS011;5534;48.784;9.190;2022-10-04T20:07:02;4.15;;;3.30;;
10963;SDS011;5534;48.784;9.190;2022-10-04T20:12:29;5.43;;;3.67;;
10963;SDS011;5534;48.784;9.190;2022-10-04T20:17:59;16.67;;;7.35;;
10963;SDS011;5534;48.784;9.190;2022-10-04T20:26:13;7.10;;;3.58;;
10963;SDS011;5534;48.784;9.190;2022-10-04T20:30:04;5.00;;;3.47;;
10963;SDS011;5534;48.784;9.190;2022-10-04T20:32:05;5.05;;;3.22;;
10963;SDS011;5534;48.784;9.190;2022-10-04T20:37:04;7.55;;;3.38;;
10963;SDS011;5534;48.784;9.190;2022-10-04T20:47:45;6.13;;;3.13;;
10963;SDS011;5534;48.784;9.190;2022-10-04T20:50:14;5.93;;;3.08;;
10963;SDS011;5534;48.784;9.190;2022-10-04T20:52:50;4.35;;;3.22;;
10963;SDS011;5534;48.784;9.190;2022-10-04T20:55:31;4.35;;;3.28;;
10963;SDS011;5534;48.784;9.190;2022-10-04T20:58:23;3.53;;;2.80;;
10963;SDS011;5534;48.784;9.190;2022-10-04T21:00:51;3.50;;;2.58;;
10963;SDS011;5534;48.784;9.190;2022-10-04T21:03:18;4.22;;;2.97;;
10963;SDS011;5534;48.784;9.190;2022-10-04T21:05:44;3.70;;;2.63;;
10963;SDS011;5534;48.784;9.190;2022-10-04T21:08:23;3.35;;;2.60;;
10963;SDS011;5534;48.784;9.190;2022-10-04T21:13:53;3.83;;;2.20;;
10963;SDS011;5534;48.784;9.190;2022-10-04T21:16:31;4.53;;;2.72;;
10963;SDS011;5534;48.784;9.190;2022-10-04T21:22:01;5.00;;;3.25;;
10963;SDS011;5534;48.784;9.190;2022-10-04T21:24:36;3.03;;;2.50;;
10963;SDS011;5534;48.784;9.190;2022-10-04T21:27:02;3.53;;;2.78;;
10963;SDS011;5534;48.784;9.190;2022-10-04T21:29:33;3.70;;;2.90;;
10963;SDS011;5534;48.784;9.190;2022-10-04T21:31:59;4.07;;;2.75;;
10963;SDS011;5534;48.784;9.190;2022-10-04T21:34:25;3.30;;;2.45;;
10963;SDS011;5534;48.784;9.190;2022-10-04T21:36:51;3.53;;;2.58;;
10963;SDS011;5534;48.784;9.190;2022-10-04T21:39:17;4.57;;;2.88;;
10963;SDS011;5534;48.784;9.190;2022-10-04T21:41:43;4.72;;;2.70;;
10963;SDS011;5534;48.784;9.190;2022-10-04T21:44:09;4.43;;;3.25;;
10963;SDS011;5534;48.784;9.190;2022-10-04T21:46:34;5.45;;;3.10;;
10963;SDS011;5534;48.784;9.190;2022-10-04T21:49:01;5.35;;;3.45;;
10963;SDS011;5534;48.784;9.190;2022-10-04T21:51:28;5.93;;;3.45;;
10963;SDS011;5534;48.784;9.190;2022-10-04T21:54:01;5.63;;;3.72;;
10963;SDS011;5534;48.784;9.190;2022-10-04T21:56:30;6.50;;;3.70;;
10963;SDS011;5534;48.784;9.190;2022-10-04T21:58:56;7.45;;;3.40;;
10963;SDS011;5534;48.784;9.190;2022-10-04T22:01:22;4.57;;;3.15;;
10963;SDS011;5534;48.784;9.190;2022-10-04T22:03:48;6.93;;;3.55;;
10963;SDS011;5534;48.784;9.190;2022-10-04T22:06:16;5.15;;;3.05;;
10963;SDS011;5534;48.784;9.190;2022-10-04T22:08:42;5.93;;;2.80;;
10963;SDS011;5534;48.784;9.190;2022-10-04T22:11:08;4.75;;;3.28;;
10963;SDS011;5534;48.784;9.190;2022-10-04T22:13:35;5.18;;;3.40;;
10963;SDS011;5534;48.784;9.190;2022-10-04T22:16:01;5.20;;;3.33;;
10963;SDS011;5534;48.784;9.190;2022-10-04T22:18:28;6.53;;;3.65;;
10963;SDS011;5534;48.784;9.190;2022-10-04T22:20:54;6.20;;;3.80;;
10963;SDS011;5534;48.784;9.190;2022-10-04T22:23:21;6.00;;;3.47;;
10963;SDS011;5534;48.784;9.190;2022-10-04T22:25:48;5.18;;;3.63;;
10963;SDS011;5534;48.784;9.190;2022-10-04T22:28:25;4.88;;;3.42;;
10963;SDS011;5534;48.784;9.190;2022-10-04T22:30:52;4.00;;;3.10;;
10963;SDS011;5534;48.784;9.190;2022-10-04T22:33:33;5.18;;;3.17;;
10963;SDS011;5534;48.784;9.190;2022-10-04T22:36:11;6.55;;;3.03;;
10963;SDS011;5534;48.784;9.190;2022-10-04T22:41:25;4.78;;;3.60;;
10963;SDS011;5534;48.784;9.190;2022-10-04T22:43:57;5.00;;;3.22;;
10963;SDS011;5534;48.784;9.190;2022-10-04T22:46:32;6.75;;;3.47;;
10963;SDS011;5534;48.784;9.190;2022-10-04T22:49:04;4.85;;;3.58;;
10963;SDS011;5534;48.784;9.190;2022-10-04T22:51:36;6.35;;;3.63;;
10963;SDS011;5534;48.784;9.190;2022-10-04T22:54:08;5.93;;;3.38;;
10963;SDS011;5534;48.784;9.190;2022-10-04T22:56:39;5.05;;;3.53;;
10963;SDS011;5534;48.784;9.190;2022-10-04T22:59:09;8.25;;;2.92;;
10963;SDS011;5534;48.784;9.190;2022-10-04T23:01:37;6.57;;;3.70;;
10963;SDS011;5534;48.784;9.190;2022-10-04T23:04:03;4.07;;;3.00;;
10963;SDS011;5534;48.784;9.190;2022-10-04T23:06:38;5.60;;;3.00;;
10963;SDS011;5534;48.784;9.190;2022-10-04T23:09:04;6.00;;;3.45;;
10963;SDS011;5534;48.784;9.190;2022-10-04T23:11:30;4.22;;;3.20;;
10963;SDS011;5534;48.784;9.190;2022-10-04T23:13:56;3.22;;;2.38;;
10963;SDS011;5534;48.784;9.190;2022-10-04T23:16:22;3.92;;;3.13;;
10963;SDS011;5534;48.784;9.190;2022-10-04T23:18:48;4.97;;;3.03;;
10963;SDS011;5534;48.784;9.190;2022-10-04T23:21:23;5.10;;;3.13;;
10963;SDS011;5534;48.784;9.190;2022-10-04T23:23:50;4.03;;;3.10;;
10963;SDS011;5534;48.784;9.190;2022-10-04T23:26:24;3.88;;;2.90;;
10963;SDS011;5534;48.784;9.190;2022-10-04T23:28:56;3.35;;;2.92;;
10963;SDS011;5534;48.784;9.190;2022-10-04T23:31:23;4.97;;;3.27;;
10963;SDS011;5534;48.784;9.190;2022-10-04T23:33:51;4.05;;;3.25;;
10963;SDS011;5534;48.784;9.190;2022-10-04T23:36:19;4.53;;;3.40;;
10963;SDS011;5534;48.784;9.190;2022-10-04T23:38:51;4.10;;;3.40;;
10963;SDS011;5534;48.784;9.190;2022-10-04T23:41:23;4.50;;;3.47;;
10963;SDS011;5534;48.784;9.190;2022-10-04T23:43:50;3.63;;;2.97;;
10963;SDS011;5534;48.784;9.190;2022-10-04T23:46:19;5.40;;;3.30;;
10963;SDS011;5534;48.784;9.190;2022-10-04T23:48:47;5.90;;;3.57;;
10963;SDS011;5534;48.784;9.190;2022-10-04T23:51:14;4.43;;;3.10;;
10963;SDS011;5534;48.784;9.190;2022-10-04T23:53:42;5.27;;;3.30;;
10963;SDS011;5534;48.784;9.190;2022-10-04T23:56:31;4.70;;;3.30;;
10963;SDS011;5534;48.784;9.190;2022-10-04T23:58:56;3.05;;;2.60;;
